Airfield :
LOGIN :

Register | Disclaimer

   EN    FR    IT 

 










Legend :    VFR   Marginal VFR   IFR   Intensive IFR   Very Intensive IFR
Visi :
Ceiling :
>= 8 km
>= 3000ft
5 to 8 km
1000 to 3000 ft
1500m to 5 km
500 to 1000 ft
800 to 1500m
200 to 500 ft
< 800m
< 200 ft
Symbols :   Thunderstorms  Fog  Heavy snow  Heavy precipitations  Wind > 20 kt
SIGMETs :     Misc.  Thunderstorms  Icing  Turbulence  Mountain Waves  Volcanic Ashes






- Airport Elevation : 527 ft
- IATA code : DBV


LDDU - Dubrovnik

CURRENT METAR :
  • 270630Z VRB09G19KT 9999 FEW055 18/04 Q1023 BECMG 33008KT

EXPIRED METARs :
  • 270600Z VRB05KT 9999 FEW055 17/04 Q1023 BECMG 33008KT
  • 270530Z VRB03KT 9999 FEW045 16/04 Q1023 TEMPO 02012KT
  • 270500Z VRB03KT 9999 FEW050 16/04 Q1023 TEMPO 02012KT
  • 270430Z 00000KT 9999 FEW035 15/04 Q1022 TEMPO 02012KT
  • 270400Z 03006KT 340V080 9999 FEW035 14/04 Q1022 TEMPO 02015KT

TAF TAF LDDU
Valid from the 27 at 06:00 until the 28 at 06:00 UTC


270525Z 2706/2806 33008KT CAVOK TX23/2712Z TN14/2804Z
PROB30
TEMPO 2708/2716 VRB12G25KT
BECMG 2716/2718 02018KT
TEMPO 2718/2723 02020G33KT



MET'MAP, your aeronautical weather chart ! - Copyright ORBIFLY December 2007 - Disclaimer

ORBIFLY MET'MAP TEAM :

Programming & Development : Alexandra Zaïnal
Concept & original design : Baudouin d'Aumeries
Assistance for programming : Marc-Olivier Méhu
Technical & hardware support : Manuel Goepfert

Contact : metmap@orbifly.com




SOURCES & CREDITS :

   NOAA